createdAt,value
2018-09-17T00:02:12.027Z,8.13
2018-09-17T00:04:39.302Z,8.37
2018-09-17T00:07:06.651Z,8.30
2018-09-17T00:09:34.995Z,8.53
2018-09-17T00:12:02.534Z,8.30
2018-09-17T00:14:29.854Z,9.33
2018-09-17T00:16:57.254Z,9.03
2018-09-17T00:19:24.661Z,8.37
2018-09-17T00:21:52.551Z,8.23
2018-09-17T00:24:20.137Z,8.40
2018-09-17T00:26:47.722Z,9.03
2018-09-17T00:29:15.305Z,8.30
2018-09-17T00:31:42.627Z,8.63
2018-09-17T00:34:10.010Z,8.90
2018-09-17T00:36:37.544Z,8.93
2018-09-17T00:39:07.808Z,8.83
2018-09-17T00:41:35.422Z,9.43
2018-09-17T00:44:02.787Z,8.47
2018-09-17T00:46:30.462Z,8.63
2018-09-17T00:48:57.771Z,7.97
2018-09-17T00:51:25.109Z,8.50
2018-09-17T00:53:52.483Z,8.50
2018-09-17T00:56:19.779Z,9.00
2018-09-17T00:58:47.467Z,8.70
2018-09-17T01:01:14.832Z,8.00
2018-09-17T01:03:42.234Z,8.00
2018-09-17T01:06:09.570Z,8.50
2018-09-17T01:08:37.083Z,8.17
2018-09-17T01:11:04.398Z,8.00
2018-09-17T01:13:31.722Z,8.70
2018-09-17T01:15:59.045Z,8.20
2018-09-17T01:18:26.432Z,8.50
2018-09-17T01:20:53.724Z,8.13
2018-09-17T01:23:21.010Z,7.60
2018-09-17T01:25:49.050Z,8.40
2018-09-17T01:28:16.521Z,8.73
2018-09-17T01:30:44.028Z,7.97
2018-09-17T01:33:11.530Z,7.80
2018-09-17T01:35:39.002Z,7.60
2018-09-17T01:38:06.398Z,8.03
2018-09-17T01:40:34.412Z,8.00
2018-09-17T01:43:02.659Z,9.17
2018-09-17T01:45:30.367Z,7.40
2018-09-17T01:47:58.985Z,9.07
2018-09-17T01:50:27.015Z,8.63
2018-09-17T01:52:54.491Z,8.50
2018-09-17T01:55:22.787Z,8.90
2018-09-17T01:57:50.399Z,8.60
2018-09-17T02:00:17.826Z,10.10
2018-09-17T02:02:45.148Z,9.37
2018-09-17T02:05:12.813Z,9.47
2018-09-17T02:07:40.136Z,10.20
2018-09-17T02:10:07.665Z,10.60
2018-09-17T02:12:34.989Z,9.97
2018-09-17T02:15:02.755Z,9.97
2018-09-17T02:17:30.264Z,9.03
2018-09-17T02:19:57.574Z,9.23
2018-09-17T02:22:24.883Z,8.30
2018-09-17T02:24:53.537Z,8.17
2018-09-17T02:27:21.081Z,9.70
2018-09-17T02:29:48.799Z,9.60
2018-09-17T02:32:16.093Z,8.53
2018-09-17T02:34:43.527Z,9.03
2018-09-17T02:37:10.989Z,8.60
2018-09-17T02:39:38.491Z,9.20
2018-09-17T02:42:06.667Z,9.30
2018-09-17T02:44:34.113Z,9.30
2018-09-17T02:47:01.472Z,9.47
2018-09-17T02:49:28.723Z,8.63
2018-09-17T02:51:56.416Z,9.37
2018-09-17T02:54:23.752Z,9.60
2018-09-17T02:56:51.122Z,10.07
2018-09-17T02:59:18.451Z,9.43
2018-09-17T03:01:45.860Z,11.00
2018-09-17T03:04:13.694Z,10.50
2018-09-17T03:06:41.013Z,8.97
2018-09-17T03:09:08.959Z,8.97
2018-09-17T03:11:36.468Z,9.87
2018-09-17T03:14:04.124Z,9.90
2018-09-17T03:16:31.419Z,8.67
2018-09-17T03:18:58.919Z,9.17
2018-09-17T03:21:26.329Z,10.00
2018-09-17T03:23:54.275Z,9.10
2018-09-17T03:26:22.342Z,10.07
2018-09-17T03:28:49.896Z,9.57
2018-09-17T03:31:17.278Z,8.30
2018-09-17T03:33:44.729Z,8.53
2018-09-17T03:36:12.148Z,9.27
2018-09-17T03:38:44.658Z,9.10
2018-09-17T03:41:12.897Z,9.77
2018-09-17T03:43:41.542Z,9.63
2018-09-17T03:46:09.102Z,9.67
2018-09-17T03:48:37.338Z,9.93
2018-09-17T03:51:09.112Z,10.40
2018-09-17T03:53:37.129Z,10.57
2018-09-17T03:56:04.733Z,10.20
2018-09-17T03:58:32.383Z,9.50
2018-09-17T04:01:00.776Z,9.47
2018-09-17T04:03:28.490Z,10.47
2018-09-17T04:05:55.884Z,9.53
2018-09-17T04:08:23.217Z,9.43
2018-09-17T04:10:50.542Z,9.40
2018-09-17T04:13:18.123Z,10.97
2018-09-17T04:15:45.638Z,10.07
2018-09-17T04:18:13.233Z,10.40
2018-09-17T04:20:40.586Z,10.10
2018-09-17T04:23:08.462Z,11.17
2018-09-17T04:25:35.959Z,10.03
2018-09-17T04:28:03.773Z,9.73
2018-09-17T04:30:31.425Z,10.80
2018-09-17T04:32:58.951Z,9.60
2018-09-17T04:35:26.430Z,9.67
2018-09-17T04:37:53.767Z,10.20
2018-09-17T04:40:21.406Z,10.53
2018-09-17T04:42:48.887Z,9.83
2018-09-17T04:45:16.595Z,10.77
2018-09-17T04:47:43.898Z,10.07
2018-09-17T04:50:11.492Z,12.00
2018-09-17T04:52:39.488Z,10.57
2018-09-17T04:55:06.901Z,10.23
2018-09-17T04:57:34.468Z,11.43
2018-09-17T05:00:02.085Z,10.90
2018-09-17T05:02:35.497Z,11.77
2018-09-17T05:05:03.263Z,11.90
2018-09-17T05:07:30.672Z,12.33
2018-09-17T05:09:58.782Z,10.83
2018-09-17T05:12:26.166Z,10.43
2018-09-17T05:14:53.603Z,12.33
2018-09-17T05:17:21.092Z,10.13
2018-09-17T05:19:48.479Z,11.53
2018-09-17T05:22:16.115Z,10.57
2018-09-17T05:24:43.550Z,10.40
2018-09-17T05:27:11.292Z,11.73
2018-09-17T05:29:38.828Z,9.93
2018-09-17T05:32:06.177Z,11.43
2018-09-17T05:34:34.117Z,10.87
2018-09-17T05:37:01.453Z,11.00
2018-09-17T05:39:28.779Z,10.87
2018-09-17T05:41:56.352Z,12.67
2018-09-17T05:44:24.770Z,10.50
2018-09-17T05:46:52.124Z,11.17
2018-09-17T05:49:19.571Z,10.83
2018-09-17T05:51:46.871Z,10.40
2018-09-17T05:54:14.232Z,10.97
2018-09-17T05:56:42.784Z,10.90
2018-09-17T05:59:10.186Z,11.80
2018-09-17T06:01:37.626Z,10.73
2018-09-17T06:04:05.056Z,11.13
2018-09-17T06:06:33.338Z,10.67
2018-09-17T06:09:00.997Z,10.90
2018-09-17T06:11:28.372Z,12.00
2018-09-17T06:13:56.901Z,13.47
2018-09-17T06:16:24.393Z,11.20
2018-09-17T06:18:51.738Z,11.80
2018-09-17T06:21:19.080Z,13.33
2018-09-17T06:23:46.403Z,11.07
2018-09-17T06:26:13.767Z,10.47
2018-09-17T06:28:41.209Z,11.40
2018-09-17T06:31:08.942Z,10.70
2018-09-17T06:33:36.348Z,10.03
2018-09-17T06:36:04.303Z,10.43
2018-09-17T06:38:31.635Z,10.07
2018-09-17T06:40:59.416Z,9.30
2018-09-17T06:43:27.019Z,9.90
2018-09-17T06:45:54.525Z,9.77
2018-09-17T06:48:21.872Z,10.90
2018-09-17T06:50:49.200Z,11.60
2018-09-17T06:53:16.849Z,10.60
2018-09-17T06:55:44.416Z,9.93
2018-09-17T06:58:11.818Z,9.50
2018-09-17T07:00:39.478Z,10.37
2018-09-17T07:03:07.070Z,9.93
2018-09-17T07:05:34.616Z,10.37
2018-09-17T07:08:02.469Z,10.80
2018-09-17T07:10:29.887Z,9.20
2018-09-17T07:12:57.262Z,11.67
2018-09-17T07:15:24.670Z,11.23
2018-09-17T07:17:52.110Z,12.40
2018-09-17T07:20:19.537Z,13.40
2018-09-17T07:22:47.026Z,10.30
2018-09-17T07:25:14.850Z,9.73
2018-09-17T07:27:42.185Z,9.67
2018-09-17T07:30:09.671Z,9.90
2018-09-17T07:32:37.198Z,10.53
2018-09-17T07:35:04.544Z,9.57
2018-09-17T07:37:31.877Z,10.30
2018-09-17T07:39:59.302Z,11.67
2018-09-17T07:42:26.601Z,8.83
2018-09-17T07:44:54.038Z,10.70
2018-09-17T07:47:21.321Z,9.43
2018-09-17T07:49:48.706Z,10.47
2018-09-17T07:52:16.102Z,11.50
2018-09-17T07:54:43.696Z,11.67
2018-09-17T07:57:11.077Z,11.00
2018-09-17T07:59:38.566Z,11.67
2018-09-17T08:02:06.013Z,11.47
2018-09-17T08:04:33.589Z,10.37
2018-09-17T08:07:01.027Z,11.53
2018-09-17T08:09:28.454Z,10.73
2018-09-17T08:11:56.104Z,10.87
2018-09-17T08:14:23.492Z,11.10
2018-09-17T08:16:50.833Z,11.03
2018-09-17T08:19:18.377Z,11.57
2018-09-17T08:21:45.776Z,9.10
2018-09-17T08:24:13.157Z,8.00
2018-09-17T08:26:40.630Z,9.80
2018-09-17T08:29:08.230Z,8.43
2018-09-17T08:31:35.664Z,9.80
2018-09-17T08:34:03.061Z,7.57
2018-09-17T08:36:30.431Z,10.30
2018-09-17T08:38:58.087Z,8.77
2018-09-17T08:41:25.987Z,9.60
2018-09-17T08:43:53.448Z,11.60
2018-09-17T08:46:20.836Z,11.20
2018-09-17T08:48:48.337Z,9.90
2018-09-17T08:51:15.815Z,10.70
2018-09-17T08:53:43.375Z,11.77
2018-09-17T08:56:15.935Z,10.00
2018-09-17T08:58:48.722Z,9.33
2018-09-17T09:01:21.997Z,9.37
2018-09-17T09:03:54.814Z,8.40
2018-09-17T09:06:27.672Z,8.27
2018-09-17T09:08:55.238Z,8.67
2018-09-17T09:11:27.012Z,10.13
2018-09-17T09:13:56.293Z,9.10
2018-09-17T09:16:26.807Z,9.10
2018-09-17T09:18:54.187Z,9.70
2018-09-17T09:21:21.893Z,7.20
2018-09-17T09:23:49.280Z,8.10
2018-09-17T09:26:16.660Z,8.77
2018-09-17T09:28:44.078Z,8.40
2018-09-17T09:31:11.430Z,8.70
2018-09-17T09:33:38.804Z,6.23
2018-09-17T09:36:06.335Z,6.80
2018-09-17T09:38:33.740Z,8.10
2018-09-17T09:41:01.171Z,8.60
2018-09-17T09:43:28.510Z,7.43
2018-09-17T09:45:55.964Z,7.20
2018-09-17T09:48:23.332Z,7.90
2018-09-17T09:50:50.650Z,7.67
2018-09-17T09:53:18.278Z,8.00
2018-09-17T09:55:45.625Z,8.70
2018-09-17T09:58:13.008Z,7.60
2018-09-17T10:00:45.829Z,6.03
2018-09-17T10:03:16.386Z,7.30
2018-09-17T10:05:43.862Z,5.93
2018-09-17T10:08:11.203Z,7.30
2018-09-17T10:10:44.151Z,7.67
2018-09-17T10:13:18.965Z,6.17
2018-09-17T10:15:50.753Z,6.90
2018-09-17T10:18:24.032Z,7.20
2018-09-17T10:20:53.262Z,6.63
2018-09-17T10:23:22.184Z,5.73
2018-09-17T10:25:49.963Z,6.73
2018-09-17T10:28:17.674Z,6.40
2018-09-17T10:30:45.400Z,6.07
2018-09-17T10:33:13.709Z,5.33
2018-09-17T10:35:41.485Z,4.40
2018-09-17T10:38:09.928Z,5.77
2018-09-17T10:40:37.616Z,7.00
2018-09-17T10:43:05.294Z,5.23
2018-09-17T10:45:32.816Z,4.77
2018-09-17T10:48:01.326Z,4.10
2018-09-17T10:50:29.063Z,4.25
2018-09-17T10:52:56.440Z,4.42
2018-09-17T10:55:23.897Z,4.00
2018-09-17T10:57:51.246Z,4.30
2018-09-17T11:00:20.139Z,5.00
2018-09-17T11:02:47.580Z,4.63
2018-09-17T11:05:20.988Z,4.00
2018-09-17T11:07:48.456Z,4.67
2018-09-17T11:10:16.262Z,3.08
2018-09-17T11:12:43.813Z,3.75
2018-09-17T11:15:12.287Z,3.00
2018-09-17T11:17:45.468Z,3.33
2018-09-17T11:20:12.938Z,2.98
2018-09-17T11:22:40.425Z,3.20
2018-09-17T11:25:07.821Z,7.72
2018-09-17T11:27:36.156Z,3.05
2018-09-17T11:30:03.832Z,3.02
2018-09-17T11:32:32.309Z,3.90
2018-09-17T11:34:59.991Z,2.93
2018-09-17T11:37:27.751Z,3.03
2018-09-17T11:39:55.428Z,3.00
2018-09-17T11:42:22.916Z,4.10
2018-09-17T11:44:50.226Z,3.67
2018-09-17T11:47:18.174Z,4.60
2018-09-17T11:49:45.531Z,4.73
2018-09-17T11:54:53.381Z,4.37
2018-09-17T11:59:55.519Z,4.07
2018-09-17T12:02:28.244Z,3.90
2018-09-17T12:05:00.386Z,4.03
2018-09-17T12:07:35.518Z,4.40
2018-09-17T12:10:03.824Z,4.10
2018-09-17T12:12:31.278Z,4.40
2018-09-17T12:14:58.704Z,5.03
2018-09-17T12:17:26.115Z,4.53
2018-09-17T12:19:53.549Z,4.13
2018-09-17T12:22:20.912Z,3.93
2018-09-17T12:24:51.869Z,4.67
2018-09-17T12:27:26.169Z,3.97
2018-09-17T12:29:58.926Z,3.63
2018-09-17T12:32:28.765Z,4.27
2018-09-17T12:34:56.350Z,3.67
2018-09-17T12:37:25.314Z,3.70
2018-09-17T12:43:14.661Z,3.67
2018-09-17T12:48:18.027Z,3.13
2018-09-17T12:50:45.557Z,3.03
2018-09-17T12:53:16.988Z,2.90
2018-09-17T12:55:44.489Z,3.10
2018-09-17T12:58:11.973Z,3.00
2018-09-17T13:00:39.410Z,2.87
2018-09-17T13:03:08.121Z,3.60
2018-09-17T13:05:35.620Z,3.00
2018-09-17T13:08:03.003Z,3.33
2018-09-17T13:10:30.392Z,2.50
2018-09-17T13:12:57.830Z,3.57
2018-09-17T13:15:25.375Z,2.90
2018-09-17T13:17:52.848Z,2.77
2018-09-17T13:20:22.192Z,3.53
2018-09-17T13:23:01.291Z,3.83
2018-09-17T13:25:28.793Z,3.27
2018-09-17T13:27:56.282Z,4.13
2018-09-17T13:30:24.882Z,3.77
2018-09-17T13:32:58.367Z,2.83
2018-09-17T13:35:35.093Z,2.90
2018-09-17T13:38:06.348Z,3.40
2018-09-17T13:40:36.670Z,4.30
2018-09-17T13:43:04.348Z,3.30
2018-09-17T13:45:31.905Z,2.97
2018-09-17T13:48:00.413Z,3.73
2018-09-17T13:50:28.851Z,3.13
2018-09-17T13:52:57.169Z,3.00
2018-09-17T13:55:25.413Z,2.80
2018-09-17T13:57:53.300Z,3.17
2018-09-17T14:00:20.888Z,3.30
2018-09-17T14:02:48.267Z,3.03
2018-09-17T14:05:15.900Z,2.70
2018-09-17T14:07:46.401Z,2.70
2018-09-17T14:10:14.499Z,3.27
2018-09-17T14:12:41.762Z,3.00
2018-09-17T14:15:09.185Z,2.40
2018-09-17T14:17:36.741Z,2.87
2018-09-17T14:20:04.228Z,4.73
2018-09-17T14:22:31.635Z,3.40
2018-09-17T14:24:59.153Z,2.90
2018-09-17T14:27:26.605Z,4.07
2018-09-17T14:29:54.027Z,2.77
2018-09-17T14:32:26.995Z,4.50
2018-09-17T14:34:55.530Z,2.67
2018-09-17T14:37:22.909Z,2.83
2018-09-17T14:39:50.281Z,3.27
2018-09-17T14:42:17.833Z,3.10
2018-09-17T14:44:45.179Z,3.83
2018-09-17T14:47:12.648Z,2.70
2018-09-17T14:49:40.104Z,2.93
2018-09-17T14:52:08.552Z,2.40
2018-09-17T14:54:36.109Z,4.13
2018-09-17T14:57:04.031Z,2.87
2018-09-17T14:59:31.488Z,3.30
2018-09-17T15:01:59.936Z,2.50
2018-09-17T15:04:27.469Z,2.57
2018-09-17T15:06:54.857Z,3.00
2018-09-17T15:09:22.576Z,2.60
2018-09-17T15:11:50.030Z,2.50
2018-09-17T15:14:17.515Z,2.70
2018-09-17T15:16:44.981Z,2.90
2018-09-17T15:19:12.510Z,2.80
2018-09-17T15:21:40.646Z,2.83
2018-09-17T15:24:08.279Z,2.77
2018-09-17T15:26:35.564Z,3.00
2018-09-17T15:29:02.999Z,3.00
2018-09-17T15:31:30.514Z,2.83
2018-09-17T15:33:57.923Z,3.40
2018-09-17T15:36:25.695Z,2.27
2018-09-17T15:38:53.015Z,3.07
2018-09-17T15:41:20.499Z,2.80
2018-09-17T15:43:47.844Z,2.67
2018-09-17T15:46:15.349Z,3.13
2018-09-17T15:48:42.958Z,2.60
2018-09-17T15:51:10.303Z,3.00
2018-09-17T15:53:37.733Z,3.70
2018-09-17T15:56:05.463Z,2.67
2018-09-17T15:58:32.847Z,2.50
2018-09-17T16:01:00.266Z,4.00
2018-09-17T16:03:27.609Z,2.90
2018-09-17T16:05:55.053Z,5.17
2018-09-17T16:08:22.860Z,2.40
2018-09-17T16:10:50.323Z,2.63
2018-09-17T16:13:17.773Z,4.20
2018-09-17T16:15:47.086Z,2.73
2018-09-17T16:18:14.624Z,2.67
2018-09-17T16:20:42.170Z,3.57
2018-09-17T16:23:10.040Z,2.83
2018-09-17T16:25:37.585Z,2.67
2018-09-17T16:28:05.141Z,2.60
2018-09-17T16:30:32.528Z,2.60
2018-09-17T16:33:00.142Z,2.77
2018-09-17T16:35:27.888Z,3.90
2018-09-17T16:37:55.259Z,2.57
2018-09-17T16:40:22.843Z,2.60
2018-09-17T16:42:50.340Z,2.70
2018-09-17T16:45:17.894Z,4.10
2018-09-17T16:47:45.623Z,2.40
2018-09-17T16:50:13.101Z,4.30
2018-09-17T16:52:41.015Z,2.30
2018-09-17T16:55:08.371Z,2.83
2018-09-17T16:57:35.918Z,2.73
2018-09-17T17:00:03.364Z,2.63
2018-09-17T17:02:30.825Z,3.10
2018-09-17T17:04:58.459Z,3.80
2018-09-17T17:07:25.830Z,3.27
2018-09-17T17:09:53.964Z,4.70
2018-09-17T17:12:22.484Z,4.20
2018-09-17T17:14:49.821Z,5.03
2018-09-17T17:17:17.273Z,3.70
2018-09-17T17:19:44.754Z,3.33
2018-09-17T17:22:12.215Z,3.30
2018-09-17T17:24:39.623Z,4.13
2018-09-17T17:27:07.080Z,3.50
2018-09-17T17:29:34.737Z,4.50
2018-09-17T17:32:02.391Z,4.17
2018-09-17T17:34:29.819Z,4.23
2018-09-17T17:36:57.302Z,4.33
2018-09-17T17:39:24.748Z,3.73
2018-09-17T17:41:52.106Z,3.90
2018-09-17T17:44:19.502Z,4.37
2018-09-17T17:46:46.962Z,4.00
2018-09-17T17:49:14.350Z,4.03
2018-09-17T17:51:44.509Z,4.60
2018-09-17T17:54:12.010Z,4.03
2018-09-17T17:56:39.455Z,3.97
2018-09-17T17:59:06.921Z,3.60
2018-09-17T18:01:34.619Z,4.70
2018-09-17T18:04:02.241Z,3.90
2018-09-17T18:06:29.533Z,4.00
2018-09-17T18:08:56.843Z,5.40
2018-09-17T18:11:24.297Z,6.80
2018-09-17T18:13:51.769Z,5.23
2018-09-17T18:16:20.030Z,6.30
2018-09-17T18:18:47.909Z,6.17
2018-09-17T18:21:17.452Z,7.23
2018-09-17T18:23:46.702Z,4.77
2018-09-17T18:26:14.632Z,6.20
2018-09-17T18:28:42.365Z,8.73
2018-09-17T18:31:09.653Z,6.07
2018-09-17T18:33:37.945Z,6.10
2018-09-17T18:36:05.669Z,5.70
2018-09-17T18:38:33.150Z,6.83
2018-09-17T18:41:00.637Z,8.00
2018-09-17T18:43:28.024Z,7.90
2018-09-17T18:45:55.504Z,7.80
2018-09-17T18:48:23.148Z,8.83
2018-09-17T18:50:50.474Z,7.03
2018-09-17T18:53:18.218Z,7.40
2018-09-17T18:55:46.090Z,9.23
2018-09-17T18:58:13.906Z,10.23
2018-09-17T19:00:41.404Z,5.90
2018-09-17T19:03:09.990Z,6.57
2018-09-17T19:05:38.972Z,7.03
2018-09-17T19:08:08.802Z,5.90
2018-09-17T19:10:37.762Z,6.77
2018-09-17T19:13:08.327Z,8.67
2018-09-17T19:15:44.089Z,6.40
2018-09-17T19:18:16.986Z,6.23
2018-09-17T19:20:46.134Z,6.30
2018-09-17T19:23:18.769Z,6.33
2018-09-17T19:25:46.314Z,6.40
2018-09-17T19:28:19.243Z,8.77
2018-09-17T19:30:47.688Z,6.60
2018-09-17T19:33:15.217Z,6.10
2018-09-17T19:35:42.694Z,6.40
2018-09-17T19:38:15.601Z,5.50
2018-09-17T19:40:43.918Z,5.57
2018-09-17T19:43:11.349Z,5.17
2018-09-17T19:45:44.246Z,5.83
2018-09-17T19:48:16.076Z,5.93
2018-09-17T19:50:49.133Z,5.10
2018-09-17T19:53:16.538Z,7.10
2018-09-17T19:55:44.082Z,7.53
2018-09-17T19:58:17.351Z,5.50
2018-09-17T20:00:45.488Z,6.40
2018-09-17T20:03:12.866Z,5.90
2018-09-17T20:06:43.574Z,5.00
2018-09-17T20:09:12.374Z,5.40
2018-09-17T20:11:40.183Z,6.13
2018-09-17T20:14:07.705Z,5.63
2018-09-17T20:16:35.096Z,6.13
2018-09-17T20:19:02.687Z,5.17
2018-09-17T20:21:30.117Z,5.87
2018-09-17T20:23:58.749Z,5.70
2018-09-17T20:26:26.173Z,6.37
2018-09-17T20:28:53.613Z,4.57
2018-09-17T20:31:21.092Z,6.00
2018-09-17T20:33:48.511Z,6.57
2018-09-17T20:36:16.072Z,4.93
2018-09-17T20:38:43.803Z,5.20
2018-09-17T20:41:11.068Z,6.67
2018-09-17T20:43:38.606Z,5.57
2018-09-17T20:46:06.350Z,5.70
2018-09-17T20:48:34.077Z,5.53
2018-09-17T20:51:01.518Z,5.83
2018-09-17T20:53:28.874Z,5.33
2018-09-17T20:55:56.256Z,8.37
2018-09-17T20:58:23.584Z,10.67
2018-09-17T21:00:50.984Z,6.10
2018-09-17T21:03:18.570Z,9.50
2018-09-17T21:05:45.959Z,6.13
2018-09-17T21:08:13.376Z,5.47
2018-09-17T21:10:40.970Z,5.50
2018-09-17T21:13:08.427Z,6.20
2018-09-17T21:15:35.932Z,5.40
2018-09-17T21:18:03.360Z,5.60
2018-09-17T21:20:31.068Z,5.27
2018-09-17T21:22:59.729Z,5.00
2018-09-17T21:25:28.609Z,5.90
2018-09-17T21:27:56.199Z,7.37
2018-09-17T21:30:25.093Z,5.60
2018-09-17T21:32:52.796Z,6.80
2018-09-17T21:35:20.438Z,5.27
2018-09-17T21:37:48.665Z,5.97
2018-09-17T21:40:16.124Z,6.07
2018-09-17T21:42:43.815Z,5.73
2018-09-17T21:45:11.761Z,5.63
2018-09-17T21:47:39.633Z,5.57
2018-09-17T21:50:08.638Z,5.63
2018-09-17T21:52:36.345Z,6.40
2018-09-17T21:55:04.091Z,6.40
2018-09-17T21:57:31.705Z,5.63
2018-09-17T21:59:59.770Z,5.63
2018-09-17T22:02:27.829Z,6.47
2018-09-17T22:04:55.594Z,5.60
2018-09-17T22:07:24.369Z,6.40
2018-09-17T22:09:51.747Z,6.03
2018-09-17T22:12:19.486Z,6.20
2018-09-17T22:14:46.968Z,6.80
2018-09-17T22:17:14.349Z,6.47
2018-09-17T22:19:41.883Z,6.00
2018-09-17T22:22:09.255Z,5.90
2018-09-17T22:24:37.103Z,5.57
2018-09-17T22:27:04.510Z,5.70
2018-09-17T22:29:31.840Z,5.73
2018-09-17T22:31:59.180Z,6.83
2018-09-17T22:34:27.055Z,6.20
2018-09-17T22:36:54.452Z,6.17
2018-09-17T22:39:21.988Z,5.47
2018-09-17T22:41:49.629Z,6.53
2018-09-17T22:44:16.957Z,6.20
2018-09-17T22:46:44.399Z,6.97
2018-09-17T22:49:12.128Z,7.73
2018-09-17T22:51:39.519Z,6.60
2018-09-17T22:54:06.897Z,6.60
2018-09-17T22:56:34.354Z,6.17
2018-09-17T22:59:03.464Z,6.43
2018-09-17T23:01:31.008Z,6.00
2018-09-17T23:03:58.367Z,6.43
2018-09-17T23:06:26.081Z,7.40
2018-09-17T23:08:53.940Z,6.80
2018-09-17T23:11:21.257Z,6.70
2018-09-17T23:13:48.637Z,7.40
2018-09-17T23:16:16.042Z,6.23
2018-09-17T23:18:43.566Z,6.80
2018-09-17T23:21:10.892Z,6.23
2018-09-17T23:23:38.738Z,7.30
2018-09-17T23:26:06.106Z,7.10
2018-09-17T23:28:33.466Z,6.37
2018-09-17T23:31:00.916Z,6.67
2018-09-17T23:33:28.647Z,6.37
2018-09-17T23:35:56.032Z,6.10
2018-09-17T23:38:23.386Z,6.13
2018-09-17T23:40:50.843Z,6.13
2018-09-17T23:43:18.200Z,6.23
2018-09-17T23:45:45.497Z,7.17
2018-09-17T23:48:12.888Z,7.33
2018-09-17T23:50:40.271Z,6.57
2018-09-17T23:53:07.589Z,6.33
2018-09-17T23:55:34.967Z,6.90
2018-09-17T23:58:02.423Z,7.40
